• Join FlightAware (Why Join?)
  • Login
  • US Flag 
02:12AM EST


 

Airport Tracker/Info


-or-


 

Live Flight TrackerFlight Track Log ✈ RPA4911 ✈ 09-Jul-2013 ✈ KALB - KEWR

Flight Track Log - Related Links

Times and Time Zones

All times are in EDT time to prevent confusion due to time zone crossing. See the RPA4911 flight status page for this flight to view local times or setup timezone preferences in your user account.

Time Position Orientation Groundspeed Altitude Reporting Facility
EDT Latitude Longitude Course Direction KTS MPH feet Rate Location/Type
06:07AM 42.7672 -73.8061 200° South 170 196 1,100  Level Boston Center
06:08AM 42.8192 -73.8269 344° North 211 243 3,200 2,280 Climbing Boston Center
06:09AM 42.7850 -73.8914 234° Southwest 227 261 5,800 2,340 Climbing Boston Center
06:10AM 42.4594 -73.8551 196° South  Level Estimated
06:11AM 42.3629 -73.8727 197° South  Level Estimated
06:11AM 42.7242 -73.9239 201° Southwest 231 266 8,600  Level Boston Center
06:12AM 42.2876 -73.9564 219° Southwest  Level FlightAware Approximate
06:12AM 42.6611 -73.9592 202° Southwest 237 273 10,000  Level Boston Center
06:13AM 42.1907 -73.9696 200° South  Level Estimated
06:13AM 42.5856 -73.9967 200° South 262 302 10,900  Level Boston Center
06:14AM 42.4942 -73.9889 176° South 293 337 12,300 1,320 Climbing Boston Center
06:15AM 42.4192 -73.9728 171° South 313 360 13,600 840 Climbing Boston Center
06:16AM 42.3194 -73.9536 172° South 313 360 14,000 180 Climbing Boston Center
06:17AM 42.2378 -73.9739 190° South 324 373 14,000  Level Boston Center
06:18AM 42.1453 -74.0444 209° Southwest 339 390 14,000  Level Boston Center
06:19AM 42.0714 -74.1042 211° Southwest 350 403 14,000 -240 Level Boston Center
06:20AM 41.9728 -74.1492 199° South 350 403 13,600 -660 Descending Boston Center
06:21AM 41.8889 -74.1886 199° South 340 391 12,700 -1,020 Descending Boston Center
06:22AM 41.8028 -74.2225 196° South 319 367 11,600 -1,020 Descending Boston Center
06:23AM 41.7231 -74.2592 199° South 313 360 10,700 -1,020 Descending Boston Center
06:24AM 41.6453 -74.2903 197° South 301 346 9,600 -1,020 Descending Boston Center
06:25AM 41.5803 -74.3189 198° South 287 330 8,700 -1,020 Descending Boston Center
06:26AM 41.5006 -74.3525 198° South 287 330 7,600 -540 Descending Boston Center
06:28AM 41.3667 -74.4167 200° South 257 296 7,100 -240 Descending New York TRACON
06:29AM 41.2833 -74.4333 189° South 265 305 7,000 -720 Descending New York TRACON
06:30AM 41.2333 -74.3833 143° Southeast 267 307 5,600 -960 Descending New York TRACON
06:31AM 41.1667 -74.3333 151° Southeast 249 287 5,100 -300 Descending New York TRACON
06:32AM 41.1000 -74.2833 151° Southeast 256 295 5,100  Level New York TRACON
06:33AM 41.0333 -74.2167 143° Southeast 266 306 5,100 -360 Level New York TRACON
06:34AM 40.9833 -74.1833 153° Southeast 264 304 4,400 -540 Descending New York TRACON
06:35AM 40.9167 -74.1333 150° Southeast 234 269 4,100 -540 Descending New York TRACON
06:36AM 40.8667 -74.0833 143° Southeast 222 255 3,300 -660 Descending New York TRACON
06:37AM 40.8167 -74.0833 180° South 195 224 2,800 -540 Descending New York TRACON